Terminal Aerodrome Forecast
Issued by NWS

Home | Current Version | Previous Version | Graphics & Text | Print | Product List | Glossary On
Versions: 1 2 3 4 5 6 7 8 9 10 11 12 13 14 15 16 17 18 19 20 21 22
000
FTUS43 KGRB 241600 AAA
TAFMTW
TAF AMD
KMTW 241605Z 2416/2512 24007KT P6SM OVC008
     FM241800 22007KT P6SM SCT010 BKN250
     FM250300 20005KT 6SM BR BKN050
     FM250900 26005KT 5SM BR SCT250=

USA.gov is the U.S. government's official web portal to all federal, state and local government web resources and services.